sensor_id;sensor_type;location;lat;lon;timestamp;pressure;altitude;pressure_sealevel;temperature;humidity
1472;BME280;963;42.644;23.336;2022-09-25T00:01:32;94516.84;;;12.37;57.99
1472;BME280;963;42.644;23.336;2022-09-25T00:03:58;94528.91;;;12.38;58.17
1472;BME280;963;42.644;23.336;2022-09-25T00:06:26;94530.03;;;12.37;58.43
1472;BME280;963;42.644;23.336;2022-09-25T00:08:52;94529.59;;;12.31;58.20
1472;BME280;963;42.644;23.336;2022-09-25T00:13:45;94523.84;;;12.26;58.41
1472;BME280;963;42.644;23.336;2022-09-25T00:16:15;94515.88;;;12.22;58.60
1472;BME280;963;42.644;23.336;2022-09-25T00:18:41;94524.91;;;12.21;58.37
1472;BME280;963;42.644;23.336;2022-09-25T00:21:25;94521.22;;;12.26;58.72
1472;BME280;963;42.644;23.336;2022-09-25T00:23:59;94518.84;;;12.17;58.85
1472;BME280;963;42.644;23.336;2022-09-25T00:26:27;94507.13;;;12.14;59.02
1472;BME280;963;42.644;23.336;2022-09-25T00:28:53;94506.09;;;12.23;59.27
1472;BME280;963;42.644;23.336;2022-09-25T00:31:20;94516.66;;;12.23;59.25
1472;BME280;963;42.644;23.336;2022-09-25T00:33:51;94518.88;;;12.20;59.11
1472;BME280;963;42.644;23.336;2022-09-25T00:36:17;94508.34;;;12.20;59.42
1472;BME280;963;42.644;23.336;2022-09-25T00:38:43;94515.84;;;12.18;59.61
1472;BME280;963;42.644;23.336;2022-09-25T00:41:11;94514.31;;;12.17;59.75
1472;BME280;963;42.644;23.336;2022-09-25T00:43:40;94504.94;;;12.20;59.90
1472;BME280;963;42.644;23.336;2022-09-25T00:46:36;94503.69;;;12.10;60.14
1472;BME280;963;42.644;23.336;2022-09-25T00:49:14;94498.31;;;12.03;59.89
1472;BME280;963;42.644;23.336;2022-09-25T00:51:47;94494.47;;;11.97;59.81
1472;BME280;963;42.644;23.336;2022-09-25T00:54:26;94507.22;;;11.92;60.16
1472;BME280;963;42.644;23.336;2022-09-25T00:56:54;94516.09;;;11.83;60.31
1472;BME280;963;42.644;23.336;2022-09-25T00:59:28;94520.56;;;11.79;60.70
1472;BME280;963;42.644;23.336;2022-09-25T01:01:55;94505.91;;;11.82;60.13
1472;BME280;963;42.644;23.336;2022-09-25T01:04:21;94506.31;;;11.84;60.54
1472;BME280;963;42.644;23.336;2022-09-25T01:06:48;94492.75;;;11.82;60.76
1472;BME280;963;42.644;23.336;2022-09-25T01:09:15;94505.56;;;11.83;61.17
1472;BME280;963;42.644;23.336;2022-09-25T01:11:40;94494.25;;;11.83;61.12
1472;BME280;963;42.644;23.336;2022-09-25T01:14:07;94501.53;;;11.67;60.63
1472;BME280;963;42.644;23.336;2022-09-25T01:22:17;94493.69;;;11.47;60.39
1472;BME280;963;42.644;23.336;2022-09-25T01:30:35;94489.84;;;11.41;60.19
1472;BME280;963;42.644;23.336;2022-09-25T01:38:15;94496.69;;;11.46;60.50
1472;BME280;963;42.644;23.336;2022-09-25T01:46:26;94501.59;;;11.47;60.87
1472;BME280;963;42.644;23.336;2022-09-25T01:48:56;94504.94;;;11.44;61.49
1472;BME280;963;42.644;23.336;2022-09-25T01:51:41;94504.94;;;11.44;61.70
1472;BME280;963;42.644;23.336;2022-09-25T01:54:14;94499.63;;;11.41;62.00
1472;BME280;963;42.644;23.336;2022-09-25T01:56:49;94507.16;;;11.42;62.00
1472;BME280;963;42.644;23.336;2022-09-25T01:59:20;94488.63;;;11.35;61.75
1472;BME280;963;42.644;23.336;2022-09-25T02:01:48;94509.41;;;11.40;62.10
1472;BME280;963;42.644;23.336;2022-09-25T02:04:26;94506.34;;;11.38;62.24
1472;BME280;963;42.644;23.336;2022-09-25T02:06:56;94493.13;;;11.35;61.95
1472;BME280;963;42.644;23.336;2022-09-25T02:09:45;94484.94;;;11.17;62.11
1472;BME280;963;42.644;23.336;2022-09-25T02:12:14;94482.19;;;11.33;62.34
1472;BME280;963;42.644;23.336;2022-09-25T02:14:52;94478.69;;;11.25;62.80
1472;BME280;963;42.644;23.336;2022-09-25T02:17:28;94496.59;;;11.16;61.92
1472;BME280;963;42.644;23.336;2022-09-25T02:20:13;94485.91;;;11.09;62.18
1472;BME280;963;42.644;23.336;2022-09-25T02:23:21;94486.84;;;10.97;62.10
1472;BME280;963;42.644;23.336;2022-09-25T02:26:08;94480.88;;;11.00;61.92
1472;BME280;963;42.644;23.336;2022-09-25T02:28:39;94495.56;;;11.01;62.08
1472;BME280;963;42.644;23.336;2022-09-25T02:31:07;94497.84;;;11.03;62.28
1472;BME280;963;42.644;23.336;2022-09-25T02:33:34;94489.84;;;10.95;62.36
1472;BME280;963;42.644;23.336;2022-09-25T02:36:00;94512.53;;;11.04;62.49
1472;BME280;963;42.644;23.336;2022-09-25T02:38:27;94498.25;;;11.05;62.25
1472;BME280;963;42.644;23.336;2022-09-25T02:41:30;94495.09;;;10.95;62.63
1472;BME280;963;42.644;23.336;2022-09-25T02:51:37;94496.22;;;10.75;63.25
1472;BME280;963;42.644;23.336;2022-09-25T02:54:16;94500.25;;;10.88;62.81
1472;BME280;963;42.644;23.336;2022-09-25T02:57:08;94487.09;;;10.69;63.85
1472;BME280;963;42.644;23.336;2022-09-25T02:59:42;94488.75;;;10.77;63.75
1472;BME280;963;42.644;23.336;2022-09-25T03:02:10;94497.28;;;10.71;63.93
1472;BME280;963;42.644;23.336;2022-09-25T03:04:37;94491.00;;;10.56;64.31
1472;BME280;963;42.644;23.336;2022-09-25T03:07:03;94476.03;;;10.60;64.55
1472;BME280;963;42.644;23.336;2022-09-25T03:09:34;94483.78;;;10.72;64.36
1472;BME280;963;42.644;23.336;2022-09-25T03:12:01;94492.59;;;10.80;64.37
1472;BME280;963;42.644;23.336;2022-09-25T03:14:27;94489.19;;;10.79;64.33
1472;BME280;963;42.644;23.336;2022-09-25T03:16:55;94494.09;;;10.81;64.45
1472;BME280;963;42.644;23.336;2022-09-25T03:19:21;94483.69;;;10.88;64.51
1472;BME280;963;42.644;23.336;2022-09-25T03:21:47;94497.91;;;10.83;64.86
1472;BME280;963;42.644;23.336;2022-09-25T03:24:14;94488.91;;;10.84;65.05
1472;BME280;963;42.644;23.336;2022-09-25T03:26:40;94494.72;;;10.00;67.17
1472;BME280;963;42.644;23.336;2022-09-25T03:29:06;94482.66;;;10.15;66.08
1472;BME280;963;42.644;23.336;2022-09-25T03:31:32;94495.34;;;10.29;65.85
1472;BME280;963;42.644;23.336;2022-09-25T03:33:58;94470.84;;;10.25;65.51
1472;BME280;963;42.644;23.336;2022-09-25T03:36:26;94474.25;;;10.25;65.48
1472;BME280;963;42.644;23.336;2022-09-25T03:38:54;94475.78;;;10.46;65.00
1472;BME280;963;42.644;23.336;2022-09-25T03:41:28;94475.22;;;10.56;64.81
1472;BME280;963;42.644;23.336;2022-09-25T03:43:55;94468.56;;;10.62;64.65
1472;BME280;963;42.644;23.336;2022-09-25T03:46:39;94472.31;;;10.61;65.05
1472;BME280;963;42.644;23.336;2022-09-25T03:49:04;94479.09;;;10.62;64.94
1472;BME280;963;42.644;23.336;2022-09-25T03:51:31;94486.28;;;10.65;64.96
1472;BME280;963;42.644;23.336;2022-09-25T03:53:57;94487.53;;;10.52;65.11
1472;BME280;963;42.644;23.336;2022-09-25T03:56:24;94484.34;;;10.62;65.34
1472;BME280;963;42.644;23.336;2022-09-25T03:58:52;94479.38;;;10.57;65.79
1472;BME280;963;42.644;23.336;2022-09-25T04:01:21;94484.06;;;10.67;64.94
1472;BME280;963;42.644;23.336;2022-09-25T04:03:48;94478.03;;;10.67;64.78
1472;BME280;963;42.644;23.336;2022-09-25T04:06:15;94483.44;;;10.74;64.89
1472;BME280;963;42.644;23.336;2022-09-25T04:08:43;94486.34;;;10.69;64.74
1472;BME280;963;42.644;23.336;2022-09-25T04:11:08;94488.84;;;10.61;65.03
1472;BME280;963;42.644;23.336;2022-09-25T04:13:35;94521.66;;;10.68;65.27
1472;BME280;963;42.644;23.336;2022-09-25T04:16:03;94497.63;;;10.69;65.38
1472;BME280;963;42.644;23.336;2022-09-25T04:18:29;94498.66;;;10.64;65.72
1472;BME280;963;42.644;23.336;2022-09-25T04:21:00;94500.47;;;10.60;66.01
1472;BME280;963;42.644;23.336;2022-09-25T04:23:26;94497.84;;;10.60;65.92
1472;BME280;963;42.644;23.336;2022-09-25T04:25:52;94520.56;;;10.49;66.40
1472;BME280;963;42.644;23.336;2022-09-25T04:28:18;94509.03;;;10.38;66.76
1472;BME280;963;42.644;23.336;2022-09-25T04:30:43;94496.19;;;10.33;66.90
1472;BME280;963;42.644;23.336;2022-09-25T04:33:09;94518.59;;;10.27;67.55
1472;BME280;963;42.644;23.336;2022-09-25T04:35:53;94500.75;;;10.36;66.92
1472;BME280;963;42.644;23.336;2022-09-25T04:38:19;94503.31;;;10.32;66.81
1472;BME280;963;42.644;23.336;2022-09-25T04:40:44;94514.94;;;10.31;66.68
1472;BME280;963;42.644;23.336;2022-09-25T04:43:10;94510.41;;;9.97;67.27
1472;BME280;963;42.644;23.336;2022-09-25T04:45:35;94503.63;;;9.96;66.78
1472;BME280;963;42.644;23.336;2022-09-25T04:48:02;94497.00;;;10.02;66.84
1472;BME280;963;42.644;23.336;2022-09-25T04:50:28;94509.78;;;10.19;66.66
1472;BME280;963;42.644;23.336;2022-09-25T04:52:56;94504.28;;;10.24;66.27
1472;BME280;963;42.644;23.336;2022-09-25T04:55:23;94499.84;;;10.28;65.84
1472;BME280;963;42.644;23.336;2022-09-25T04:57:50;94488.19;;;10.10;66.65
1472;BME280;963;42.644;23.336;2022-09-25T05:00:17;94512.91;;;10.25;66.75
1472;BME280;963;42.644;23.336;2022-09-25T05:02:44;94497.50;;;10.23;67.04
1472;BME280;963;42.644;23.336;2022-09-25T05:05:10;94508.63;;;10.36;67.11
1472;BME280;963;42.644;23.336;2022-09-25T05:07:35;94501.25;;;10.42;67.70
1472;BME280;963;42.644;23.336;2022-09-25T05:10:01;94508.16;;;10.50;67.32
1472;BME280;963;42.644;23.336;2022-09-25T05:12:26;94494.75;;;10.55;66.86
1472;BME280;963;42.644;23.336;2022-09-25T05:14:52;94500.66;;;10.71;66.50
1472;BME280;963;42.644;23.336;2022-09-25T05:17:17;94497.75;;;10.76;66.48
1472;BME280;963;42.644;23.336;2022-09-25T05:19:42;94492.78;;;10.71;66.51
1472;BME280;963;42.644;23.336;2022-09-25T05:22:08;94504.97;;;10.79;66.74
1472;BME280;963;42.644;23.336;2022-09-25T05:24:33;94493.06;;;10.85;65.97
1472;BME280;963;42.644;23.336;2022-09-25T05:26:59;94491.00;;;10.98;66.15
1472;BME280;963;42.644;23.336;2022-09-25T05:29:25;94478.66;;;11.02;66.04
1472;BME280;963;42.644;23.336;2022-09-25T05:31:50;94497.69;;;11.15;65.84
1472;BME280;963;42.644;23.336;2022-09-25T05:34:16;94506.53;;;11.26;65.29
1472;BME280;963;42.644;23.336;2022-09-25T05:36:41;94503.59;;;11.31;65.10
1472;BME280;963;42.644;23.336;2022-09-25T05:39:10;94499.91;;;11.13;65.98
1472;BME280;963;42.644;23.336;2022-09-25T05:41:36;94496.03;;;11.07;66.08
1472;BME280;963;42.644;23.336;2022-09-25T05:44:01;94492.66;;;11.29;64.50
1472;BME280;963;42.644;23.336;2022-09-25T05:46:36;94491.25;;;11.35;64.63
1472;BME280;963;42.644;23.336;2022-09-25T05:49:02;94487.84;;;11.57;64.11
1472;BME280;963;42.644;23.336;2022-09-25T05:51:28;94503.75;;;11.65;63.78
1472;BME280;963;42.644;23.336;2022-09-25T05:53:53;94500.81;;;11.70;63.41
1472;BME280;963;42.644;23.336;2022-09-25T05:56:20;94508.56;;;11.82;63.15
1472;BME280;963;42.644;23.336;2022-09-25T05:58:45;94503.75;;;11.65;63.83
1472;BME280;963;42.644;23.336;2022-09-25T06:01:13;94499.97;;;11.62;63.31
1472;BME280;963;42.644;23.336;2022-09-25T06:03:39;94505.50;;;11.80;63.19
1472;BME280;963;42.644;23.336;2022-09-25T06:06:04;94506.63;;;11.79;63.29
1472;BME280;963;42.644;23.336;2022-09-25T06:08:30;94496.31;;;11.70;62.69
1472;BME280;963;42.644;23.336;2022-09-25T06:10:56;94492.91;;;11.70;60.98
1472;BME280;963;42.644;23.336;2022-09-25T06:13:23;94505.75;;;11.71;60.74
1472;BME280;963;42.644;23.336;2022-09-25T06:15:50;94491.28;;;11.84;60.38
1472;BME280;963;42.644;23.336;2022-09-25T06:18:22;94491.50;;;11.76;60.25
1472;BME280;963;42.644;23.336;2022-09-25T06:20:48;94502.50;;;11.55;61.41
1472;BME280;963;42.644;23.336;2022-09-25T06:23:14;94503.88;;;11.72;61.45
1472;BME280;963;42.644;23.336;2022-09-25T06:25:40;94507.22;;;11.69;61.47
1472;BME280;963;42.644;23.336;2022-09-25T06:28:06;94505.09;;;11.78;60.58
1472;BME280;963;42.644;23.336;2022-09-25T06:30:33;94519.91;;;11.86;60.42
1472;BME280;963;42.644;23.336;2022-09-25T06:33:00;94501.84;;;11.88;60.70
1472;BME280;963;42.644;23.336;2022-09-25T06:35:27;94496.56;;;12.14;60.36
1472;BME280;963;42.644;23.336;2022-09-25T06:37:57;94492.50;;;12.20;59.27
1472;BME280;963;42.644;23.336;2022-09-25T06:40:23;94505.28;;;12.18;59.25
1472;BME280;963;42.644;23.336;2022-09-25T06:43:01;94499.69;;;11.94;59.95
1472;BME280;963;42.644;23.336;2022-09-25T06:45:28;94513.34;;;11.99;60.00
1472;BME280;963;42.644;23.336;2022-09-25T06:48:05;94521.13;;;12.18;59.73
1472;BME280;963;42.644;23.336;2022-09-25T06:50:48;94528.03;;;12.27;60.55
1472;BME280;963;42.644;23.336;2022-09-25T06:53:15;94487.75;;;12.30;59.59
1472;BME280;963;42.644;23.336;2022-09-25T06:55:41;94493.38;;;12.62;59.13
1472;BME280;963;42.644;23.336;2022-09-25T06:58:11;94499.88;;;12.68;58.87
1472;BME280;963;42.644;23.336;2022-09-25T07:00:38;94492.91;;;12.86;58.42
1472;BME280;963;42.644;23.336;2022-09-25T07:03:03;94491.81;;;12.91;58.70
1472;BME280;963;42.644;23.336;2022-09-25T07:05:47;94500.19;;;13.00;58.49
1472;BME280;963;42.644;23.336;2022-09-25T07:08:15;94495.00;;;13.07;58.53
1472;BME280;963;42.644;23.336;2022-09-25T07:10:52;94516.28;;;13.21;57.95
1472;BME280;963;42.644;23.336;2022-09-25T07:13:19;94516.25;;;13.18;58.30
1472;BME280;963;42.644;23.336;2022-09-25T07:16:01;94527.03;;;13.39;58.11
1472;BME280;963;42.644;23.336;2022-09-25T07:18:28;94538.22;;;13.25;57.76
1472;BME280;963;42.644;23.336;2022-09-25T07:21:02;94531.69;;;13.15;57.65
1472;BME280;963;42.644;23.336;2022-09-25T07:23:28;94538.75;;;13.41;56.76
1472;BME280;963;42.644;23.336;2022-09-25T07:25:55;94530.13;;;13.48;56.17
1472;BME280;963;42.644;23.336;2022-09-25T07:28:21;94541.19;;;13.64;56.81
1472;BME280;963;42.644;23.336;2022-09-25T07:30:46;94539.22;;;13.51;56.96
1472;BME280;963;42.644;23.336;2022-09-25T07:33:13;94534.47;;;13.74;56.73
1472;BME280;963;42.644;23.336;2022-09-25T07:35:40;94535.31;;;13.85;56.92
1472;BME280;963;42.644;23.336;2022-09-25T07:38:05;94524.53;;;14.12;56.88
1472;BME280;963;42.644;23.336;2022-09-25T07:40:31;94525.41;;;14.33;55.79
1472;BME280;963;42.644;23.336;2022-09-25T07:43:00;94522.41;;;14.35;55.22
1472;BME280;963;42.644;23.336;2022-09-25T07:45:26;94492.22;;;14.47;54.75
1472;BME280;963;42.644;23.336;2022-09-25T07:48:00;94500.63;;;14.59;54.48
1472;BME280;963;42.644;23.336;2022-09-25T07:50:26;94487.63;;;14.40;55.47
1472;BME280;963;42.644;23.336;2022-09-25T07:52:52;94490.44;;;14.68;55.42
1472;BME280;963;42.644;23.336;2022-09-25T07:55:18;94482.13;;;14.70;54.25
1472;BME280;963;42.644;23.336;2022-09-25T07:57:44;94485.94;;;14.80;54.07
1472;BME280;963;42.644;23.336;2022-09-25T08:00:10;94471.97;;;14.97;53.94
1472;BME280;963;42.644;23.336;2022-09-25T08:02:36;94471.22;;;15.04;53.90
1472;BME280;963;42.644;23.336;2022-09-25T08:05:02;94466.31;;;15.09;53.58
1472;BME280;963;42.644;23.336;2022-09-25T08:07:27;94485.66;;;15.24;53.25
1472;BME280;963;42.644;23.336;2022-09-25T08:09:53;94486.41;;;15.39;52.31
1472;BME280;963;42.644;23.336;2022-09-25T08:12:19;94479.59;;;15.38;51.75
1472;BME280;963;42.644;23.336;2022-09-25T08:14:45;94491.72;;;15.24;52.34
1472;BME280;963;42.644;23.336;2022-09-25T08:17:10;94479.97;;;15.47;52.04
1472;BME280;963;42.644;23.336;2022-09-25T08:19:36;94481.13;;;15.39;52.42
1472;BME280;963;42.644;23.336;2022-09-25T08:22:01;94478.06;;;15.22;51.45
1472;BME280;963;42.644;23.336;2022-09-25T08:24:27;94462.53;;;15.53;51.74
1472;BME280;963;42.644;23.336;2022-09-25T08:26:53;94465.59;;;15.76;49.94
1472;BME280;963;42.644;23.336;2022-09-25T08:29:18;94475.06;;;15.74;50.34
1472;BME280;963;42.644;23.336;2022-09-25T08:31:44;94433.41;;;15.46;51.08
1472;BME280;963;42.644;23.336;2022-09-25T08:34:09;94443.97;;;15.88;50.31
1472;BME280;963;42.644;23.336;2022-09-25T08:36:35;94439.38;;;16.14;49.21
1472;BME280;963;42.644;23.336;2022-09-25T08:39:00;94451.06;;;16.31;48.93
1472;BME280;963;42.644;23.336;2022-09-25T08:41:31;94430.13;;;16.50;48.66
1472;BME280;963;42.644;23.336;2022-09-25T08:44:10;94428.53;;;16.64;47.39
1472;BME280;963;42.644;23.336;2022-09-25T08:46:46;94444.56;;;16.49;47.16
1472;BME280;963;42.644;23.336;2022-09-25T08:49:40;94425.16;;;16.60;46.24
1472;BME280;963;42.644;23.336;2022-09-25T08:52:11;94437.56;;;16.87;46.83
1472;BME280;963;42.644;23.336;2022-09-25T08:54:39;94431.41;;;16.98;46.68
1472;BME280;963;42.644;23.336;2022-09-25T08:57:43;94443.47;;;17.09;46.45
1472;BME280;963;42.644;23.336;2022-09-25T09:00:17;94433.44;;;17.31;46.08
1472;BME280;963;42.644;23.336;2022-09-25T09:02:55;94430.59;;;17.56;44.83
1472;BME280;963;42.644;23.336;2022-09-25T09:05:30;94429.34;;;17.71;44.66
1472;BME280;963;42.644;23.336;2022-09-25T09:08:04;94421.66;;;17.80;44.13
1472;BME280;963;42.644;23.336;2022-09-25T09:10:39;94418.44;;;18.00;44.12
1472;BME280;963;42.644;23.336;2022-09-25T09:13:41;94416.19;;;17.95;43.61
1472;BME280;963;42.644;23.336;2022-09-25T09:18:52;94404.81;;;18.28;42.37
1472;BME280;963;42.644;23.336;2022-09-25T09:24:19;94399.34;;;18.69;41.37
1472;BME280;963;42.644;23.336;2022-09-25T09:32:02;94393.97;;;18.42;41.08
1472;BME280;963;42.644;23.336;2022-09-25T09:34:53;94397.09;;;18.68;41.10
1472;BME280;963;42.644;23.336;2022-09-25T09:37:46;94391.72;;;18.71;39.69
1472;BME280;963;42.644;23.336;2022-09-25T09:43:04;94383.09;;;19.14;39.97
1472;BME280;963;42.644;23.336;2022-09-25T09:45:52;94384.16;;;19.44;40.39
1472;BME280;963;42.644;23.336;2022-09-25T09:51:05;94379.31;;;20.02;39.08
1472;BME280;963;42.644;23.336;2022-09-25T09:53:45;94378.56;;;20.21;38.52
1472;BME280;963;42.644;23.336;2022-09-25T09:56:19;94374.84;;;20.35;38.36
1472;BME280;963;42.644;23.336;2022-09-25T09:58:56;94375.06;;;20.24;38.19
1472;BME280;963;42.644;23.336;2022-09-25T10:01:24;94372.88;;;20.19;38.03
1472;BME280;963;42.644;23.336;2022-09-25T10:04:03;94373.72;;;20.16;37.57
1472;BME280;963;42.644;23.336;2022-09-25T10:06:32;94384.09;;;20.30;37.57
1472;BME280;963;42.644;23.336;2022-09-25T10:09:00;94365.59;;;20.39;37.82
1472;BME280;963;42.644;23.336;2022-09-25T10:11:25;94363.34;;;20.38;37.36
1472;BME280;963;42.644;23.336;2022-09-25T10:13:54;94363.75;;;20.36;37.27
1472;BME280;963;42.644;23.336;2022-09-25T10:16:25;94366.78;;;20.18;38.39
1472;BME280;963;42.644;23.336;2022-09-25T10:19:10;94369.31;;;20.25;38.33
1472;BME280;963;42.644;23.336;2022-09-25T10:21:43;94360.97;;;20.23;37.93
1472;BME280;963;42.644;23.336;2022-09-25T10:32:32;94347.91;;;20.09;38.35
1472;BME280;963;42.644;23.336;2022-09-25T10:34:59;94350.69;;;20.42;37.51
1472;BME280;963;42.644;23.336;2022-09-25T10:37:28;94343.69;;;20.48;36.91
1472;BME280;963;42.644;23.336;2022-09-25T10:40:18;94337.38;;;20.58;36.66
1472;BME280;963;42.644;23.336;2022-09-25T10:42:47;94318.16;;;20.79;37.02
1472;BME280;963;42.644;23.336;2022-09-25T10:47:49;94333.59;;;21.24;36.79
1472;BME280;963;42.644;23.336;2022-09-25T10:50:33;94332.09;;;21.52;35.89
1472;BME280;963;42.644;23.336;2022-09-25T10:53:01;94331.75;;;21.66;35.47
1472;BME280;963;42.644;23.336;2022-09-25T10:55:31;94323.00;;;21.78;36.17
1472;BME280;963;42.644;23.336;2022-09-25T11:00:27;94318.13;;;21.61;35.92
1472;BME280;963;42.644;23.336;2022-09-25T11:02:56;94317.75;;;21.75;35.90
1472;BME280;963;42.644;23.336;2022-09-25T11:05:29;94325.59;;;22.24;35.19
1472;BME280;963;42.644;23.336;2022-09-25T11:08:01;94323.50;;;22.44;35.13
1472;BME280;963;42.644;23.336;2022-09-25T11:10:33;94314.63;;;22.85;34.66
1472;BME280;963;42.644;23.336;2022-09-25T11:13:08;94299.50;;;23.26;33.78
1472;BME280;963;42.644;23.336;2022-09-25T11:15:46;94300.97;;;23.05;33.95
1472;BME280;963;42.644;23.336;2022-09-25T11:18:40;94297.84;;;22.94;33.93
1472;BME280;963;42.644;23.336;2022-09-25T11:26:21;94285.63;;;22.80;33.87
1472;BME280;963;42.644;23.336;2022-09-25T11:31:28;94295.84;;;23.67;33.97
1472;BME280;963;42.644;23.336;2022-09-25T11:34:26;94276.41;;;24.28;33.55
1472;BME280;963;42.644;23.336;2022-09-25T11:37:14;94280.75;;;24.75;32.63
1472;BME280;963;42.644;23.336;2022-09-25T11:39:46;94272.94;;;25.08;31.17
1472;BME280;963;42.644;23.336;2022-09-25T11:42:50;94269.34;;;25.11;30.71
1472;BME280;963;42.644;23.336;2022-09-25T11:45:26;94263.38;;;25.44;30.24
1472;BME280;963;42.644;23.336;2022-09-25T11:48:11;94271.63;;;25.77;30.02
1472;BME280;963;42.644;23.336;2022-09-25T11:53:43;94257.28;;;26.22;30.19
1472;BME280;963;42.644;23.336;2022-09-25T12:02:26;94241.66;;;26.44;29.33
1472;BME280;963;42.644;23.336;2022-09-25T12:21:47;94227.50;;;27.16;27.20
1472;BME280;963;42.644;23.336;2022-09-25T12:27:17;94225.09;;;28.00;26.81
1472;BME280;963;42.644;23.336;2022-09-25T12:29:55;94211.94;;;28.08;26.71
1472;BME280;963;42.644;23.336;2022-09-25T12:35:39;94220.25;;;28.34;26.07
1472;BME280;963;42.644;23.336;2022-09-25T12:38:38;94215.47;;;28.44;25.68
1472;BME280;963;42.644;23.336;2022-09-25T12:41:13;94215.31;;;28.68;25.86
1472;BME280;963;42.644;23.336;2022-09-25T12:43:53;94214.22;;;28.80;25.30
1472;BME280;963;42.644;23.336;2022-09-25T12:46:26;94211.50;;;28.59;24.86
1472;BME280;963;42.644;23.336;2022-09-25T12:51:40;94200.91;;;28.76;24.94
1472;BME280;963;42.644;23.336;2022-09-25T12:54:34;94182.91;;;29.14;24.41
1472;BME280;963;42.644;23.336;2022-09-25T12:57:12;94174.63;;;29.23;24.60
1472;BME280;963;42.644;23.336;2022-09-25T13:05:46;94170.75;;;30.07;23.91
1472;BME280;963;42.644;23.336;2022-09-25T13:08:30;94165.47;;;30.24;24.33
1472;BME280;963;42.644;23.336;2022-09-25T13:11:05;94150.38;;;30.17;23.75
1472;BME280;963;42.644;23.336;2022-09-25T13:13:38;94151.13;;;29.61;23.52
1472;BME280;963;42.644;23.336;2022-09-25T13:16:08;94149.97;;;29.73;24.00
1472;BME280;963;42.644;23.336;2022-09-25T13:18:34;94132.38;;;29.88;23.44
1472;BME280;963;42.644;23.336;2022-09-25T13:21:24;94155.28;;;30.13;23.57
1472;BME280;963;42.644;23.336;2022-09-25T13:23:54;94139.59;;;29.40;23.36
1472;BME280;963;42.644;23.336;2022-09-25T13:26:22;94142.75;;;29.12;24.82
1472;BME280;963;42.644;23.336;2022-09-25T13:29:27;94143.44;;;29.53;23.80
1472;BME280;963;42.644;23.336;2022-09-25T13:32:20;94137.75;;;29.31;23.55
1472;BME280;963;42.644;23.336;2022-09-25T13:34:56;94139.38;;;29.43;23.57
1472;BME280;963;42.644;23.336;2022-09-25T13:37:28;94138.72;;;29.80;23.13
1472;BME280;963;42.644;23.336;2022-09-25T13:39:56;94132.13;;;29.86;23.59
1472;BME280;963;42.644;23.336;2022-09-25T13:42:43;94130.47;;;30.00;23.38
1472;BME280;963;42.644;23.336;2022-09-25T13:45:28;94114.38;;;30.23;24.14
1472;BME280;963;42.644;23.336;2022-09-25T13:47:55;94118.25;;;30.53;23.83
1472;BME280;963;42.644;23.336;2022-09-25T13:50:43;94124.44;;;29.53;23.66
1472;BME280;963;42.644;23.336;2022-09-25T13:58:20;94114.31;;;30.11;24.22
1472;BME280;963;42.644;23.336;2022-09-25T14:03:40;94101.72;;;29.77;24.41
1472;BME280;963;42.644;23.336;2022-09-25T14:06:24;94104.59;;;29.42;24.53
1472;BME280;963;42.644;23.336;2022-09-25T14:08:52;94106.25;;;29.08;24.68
1472;BME280;963;42.644;23.336;2022-09-25T14:11:25;94119.63;;;29.17;24.63
1472;BME280;963;42.644;23.336;2022-09-25T14:13:52;94110.25;;;28.72;25.40
1472;BME280;963;42.644;23.336;2022-09-25T14:16:26;94107.97;;;28.85;25.41
1472;BME280;963;42.644;23.336;2022-09-25T14:18:55;94104.59;;;29.42;24.80
1472;BME280;963;42.644;23.336;2022-09-25T14:21:22;94100.22;;;29.44;24.52
1472;BME280;963;42.644;23.336;2022-09-25T14:23:55;94100.00;;;29.79;24.83
1472;BME280;963;42.644;23.336;2022-09-25T14:26:24;94080.53;;;30.12;24.82
1472;BME280;963;42.644;23.336;2022-09-25T14:28:51;94090.34;;;30.53;24.45
1472;BME280;963;42.644;23.336;2022-09-25T14:39:44;94100.09;;;29.07;25.46
1472;BME280;963;42.644;23.336;2022-09-25T14:47:17;94103.47;;;28.41;25.59
1472;BME280;963;42.644;23.336;2022-09-25T14:49:48;94103.06;;;28.13;27.03
1472;BME280;963;42.644;23.336;2022-09-25T14:52:18;94110.34;;;27.57;27.05
1472;BME280;963;42.644;23.336;2022-09-25T14:54:46;94100.09;;;27.17;27.81
1472;BME280;963;42.644;23.336;2022-09-25T14:57:22;94100.66;;;27.21;27.66
1472;BME280;963;42.644;23.336;2022-09-25T14:59:51;94109.00;;;27.08;27.73
1472;BME280;963;42.644;23.336;2022-09-25T15:03:00;94108.00;;;26.82;28.31
1472;BME280;963;42.644;23.336;2022-09-25T15:07:52;94123.72;;;25.61;29.87
1472;BME280;963;42.644;23.336;2022-09-25T15:12:48;94122.19;;;25.08;29.52
1472;BME280;963;42.644;23.336;2022-09-25T15:15:16;94114.97;;;25.23;29.69
1472;BME280;963;42.644;23.336;2022-09-25T15:20:26;94117.38;;;24.85;30.11
1472;BME280;963;42.644;23.336;2022-09-25T15:23:04;94109.84;;;24.34;30.51
1472;BME280;963;42.644;23.336;2022-09-25T15:25:36;94098.81;;;24.41;31.08
1472;BME280;963;42.644;23.336;2022-09-25T15:28:06;94110.75;;;24.49;30.80
1472;BME280;963;42.644;23.336;2022-09-25T15:30:35;94112.66;;;24.21;30.80
1472;BME280;963;42.644;23.336;2022-09-25T15:33:02;94103.28;;;24.35;30.65
1472;BME280;963;42.644;23.336;2022-09-25T15:35:28;94128.34;;;24.23;31.04
1472;BME280;963;42.644;23.336;2022-09-25T15:38:10;94116.91;;;24.00;31.30
1472;BME280;963;42.644;23.336;2022-09-25T15:40:37;94109.41;;;23.86;31.88
1472;BME280;963;42.644;23.336;2022-09-25T15:43:10;94089.06;;;23.76;31.59
1472;BME280;963;42.644;23.336;2022-09-25T15:45:50;94108.53;;;23.98;30.59
1472;BME280;963;42.644;23.336;2022-09-25T15:48:32;94102.28;;;24.01;30.61
1472;BME280;963;42.644;23.336;2022-09-25T15:51:04;94096.13;;;23.92;30.28
1472;BME280;963;42.644;23.336;2022-09-25T15:53:37;94096.88;;;23.92;30.55
1472;BME280;963;42.644;23.336;2022-09-25T15:56:22;94103.06;;;23.71;30.61
1472;BME280;963;42.644;23.336;2022-09-25T15:58:59;94107.22;;;23.41;31.09
1472;BME280;963;42.644;23.336;2022-09-25T16:01:30;94097.44;;;23.25;30.62
1472;BME280;963;42.644;23.336;2022-09-25T16:04:20;94094.75;;;23.25;31.36
1472;BME280;963;42.644;23.336;2022-09-25T16:09:57;94094.75;;;23.25;31.87